sensor_id;sensor_type;location;lat;lon;timestamp;P1;durP1;ratioP1;P2;durP2;ratioP2
43086;SDS011;28708;52.224;6.924;2022-09-27T00:01:21;10.97;;;2.17;;
43086;SDS011;28708;52.224;6.924;2022-09-27T00:03:47;11.80;;;2.10;;
43086;SDS011;28708;52.224;6.924;2022-09-27T00:06:14;8.03;;;2.10;;
43086;SDS011;28708;52.224;6.924;2022-09-27T00:08:44;11.40;;;2.40;;
43086;SDS011;28708;52.224;6.924;2022-09-27T00:11:11;10.17;;;2.40;;
43086;SDS011;28708;52.224;6.924;2022-09-27T00:13:59;9.70;;;2.50;;
43086;SDS011;28708;52.224;6.924;2022-09-27T00:16:26;12.60;;;2.40;;
43086;SDS011;28708;52.224;6.924;2022-09-27T00:18:57;10.23;;;2.37;;
43086;SDS011;28708;52.224;6.924;2022-09-27T00:21:24;13.90;;;2.50;;
43086;SDS011;28708;52.224;6.924;2022-09-27T00:23:50;5.40;;;1.40;;
43086;SDS011;28708;52.224;6.924;2022-09-27T00:26:16;7.90;;;2.07;;
43086;SDS011;28708;52.224;6.924;2022-09-27T00:28:42;11.07;;;2.03;;
43086;SDS011;28708;52.224;6.924;2022-09-27T00:31:20;10.67;;;1.93;;
43086;SDS011;28708;52.224;6.924;2022-09-27T00:33:48;9.40;;;2.60;;
43086;SDS011;28708;52.224;6.924;2022-09-27T00:36:16;12.10;;;1.83;;
43086;SDS011;28708;52.224;6.924;2022-09-27T00:38:43;7.10;;;2.23;;
43086;SDS011;28708;52.224;6.924;2022-09-27T00:41:20;11.40;;;1.97;;
43086;SDS011;28708;52.224;6.924;2022-09-27T00:43:49;7.47;;;1.97;;
43086;SDS011;28708;52.224;6.924;2022-09-27T00:46:18;6.03;;;1.80;;
43086;SDS011;28708;52.224;6.924;2022-09-27T00:48:57;8.70;;;2.07;;
43086;SDS011;28708;52.224;6.924;2022-09-27T00:51:45;9.93;;;2.00;;
43086;SDS011;28708;52.224;6.924;2022-09-27T00:54:16;12.23;;;2.47;;
43086;SDS011;28708;52.224;6.924;2022-09-27T00:56:43;7.53;;;1.90;;
43086;SDS011;28708;52.224;6.924;2022-09-27T00:59:10;12.43;;;1.90;;
43086;SDS011;28708;52.224;6.924;2022-09-27T01:01:41;9.03;;;2.23;;
43086;SDS011;28708;52.224;6.924;2022-09-27T01:04:11;8.87;;;2.10;;
43086;SDS011;28708;52.224;6.924;2022-09-27T01:06:39;11.73;;;2.80;;
43086;SDS011;28708;52.224;6.924;2022-09-27T01:09:06;10.03;;;2.53;;
43086;SDS011;28708;52.224;6.924;2022-09-27T01:11:46;6.05;;;2.38;;
43086;SDS011;28708;52.224;6.924;2022-09-27T01:21:59;9.90;;;3.93;;
43086;SDS011;28708;52.224;6.924;2022-09-27T01:30:21;10.70;;;1.93;;
43086;SDS011;28708;52.224;6.924;2022-09-27T01:38:41;13.17;;;1.67;;
43086;SDS011;28708;52.224;6.924;2022-09-27T01:46:39;3.00;;;0.80;;
43086;SDS011;28708;52.224;6.924;2022-09-27T01:49:55;3.57;;;0.60;;
43086;SDS011;28708;52.224;6.924;2022-09-27T01:52:32;5.83;;;1.40;;
43086;SDS011;28708;52.224;6.924;2022-09-27T01:55:08;2.60;;;1.00;;
43086;SDS011;28708;52.224;6.924;2022-09-27T01:58:04;4.70;;;1.05;;
43086;SDS011;28708;52.224;6.924;2022-09-27T02:00:37;4.60;;;1.20;;
43086;SDS011;28708;52.224;6.924;2022-09-27T02:03:12;7.17;;;1.40;;
43086;SDS011;28708;52.224;6.924;2022-09-27T02:06:22;5.87;;;1.40;;
43086;SDS011;28708;52.224;6.924;2022-09-27T02:09:32;6.63;;;1.97;;
43086;SDS011;28708;52.224;6.924;2022-09-27T02:12:17;3.57;;;1.30;;
43086;SDS011;28708;52.224;6.924;2022-09-27T02:14:57;5.60;;;1.53;;
43086;SDS011;28708;52.224;6.924;2022-09-27T02:17:41;7.70;;;1.90;;
43086;SDS011;28708;52.224;6.924;2022-09-27T02:20:17;5.77;;;1.90;;
43086;SDS011;28708;52.224;6.924;2022-09-27T02:25:53;6.77;;;1.63;;
43086;SDS011;28708;52.224;6.924;2022-09-27T02:31:21;11.33;;;1.97;;
43086;SDS011;28708;52.224;6.924;2022-09-27T02:33:58;5.67;;;1.60;;
43086;SDS011;28708;52.224;6.924;2022-09-27T02:36:29;7.30;;;1.73;;
43086;SDS011;28708;52.224;6.924;2022-09-27T02:38:55;8.13;;;1.67;;
43086;SDS011;28708;52.224;6.924;2022-09-27T02:41:22;4.47;;;1.53;;
43086;SDS011;28708;52.224;6.924;2022-09-27T02:43:49;6.30;;;1.60;;
43086;SDS011;28708;52.224;6.924;2022-09-27T02:52:05;5.47;;;1.27;;
43086;SDS011;28708;52.224;6.924;2022-09-27T02:54:50;5.60;;;1.50;;
43086;SDS011;28708;52.224;6.924;2022-09-27T03:04:03;5.33;;;1.67;;
43086;SDS011;28708;52.224;6.924;2022-09-27T03:06:47;5.83;;;1.40;;
43086;SDS011;28708;52.224;6.924;2022-09-27T03:09:22;5.67;;;1.87;;
43086;SDS011;28708;52.224;6.924;2022-09-27T03:11:53;8.53;;;1.50;;
43086;SDS011;28708;52.224;6.924;2022-09-27T03:14:20;5.53;;;1.43;;
43086;SDS011;28708;52.224;6.924;2022-09-27T03:17:00;6.73;;;1.40;;
43086;SDS011;28708;52.224;6.924;2022-09-27T03:19:49;10.23;;;1.60;;
43086;SDS011;28708;52.224;6.924;2022-09-27T03:22:44;4.93;;;1.20;;
43086;SDS011;28708;52.224;6.924;2022-09-27T03:25:11;6.87;;;1.30;;
43086;SDS011;28708;52.224;6.924;2022-09-27T03:27:36;4.17;;;0.97;;
43086;SDS011;28708;52.224;6.924;2022-09-27T03:30:03;6.93;;;1.50;;
43086;SDS011;28708;52.224;6.924;2022-09-27T03:32:30;5.40;;;1.20;;
43086;SDS011;28708;52.224;6.924;2022-09-27T03:35:22;5.10;;;1.20;;
43086;SDS011;28708;52.224;6.924;2022-09-27T03:37:48;4.87;;;1.40;;
43086;SDS011;28708;52.224;6.924;2022-09-27T03:40:14;7.37;;;1.50;;
43086;SDS011;28708;52.224;6.924;2022-09-27T03:42:40;7.83;;;1.10;;
43086;SDS011;28708;52.224;6.924;2022-09-27T03:45:06;7.97;;;1.37;;
43086;SDS011;28708;52.224;6.924;2022-09-27T03:47:32;2.63;;;0.90;;
43086;SDS011;28708;52.224;6.924;2022-09-27T03:49:58;3.33;;;0.80;;
43086;SDS011;28708;52.224;6.924;2022-09-27T03:52:24;6.50;;;1.27;;
43086;SDS011;28708;52.224;6.924;2022-09-27T03:54:50;4.73;;;1.07;;
43086;SDS011;28708;52.224;6.924;2022-09-27T03:57:17;6.00;;;1.47;;
43086;SDS011;28708;52.224;6.924;2022-09-27T03:59:43;4.90;;;1.10;;
43086;SDS011;28708;52.224;6.924;2022-09-27T04:02:37;3.90;;;1.40;;
43086;SDS011;28708;52.224;6.924;2022-09-27T04:05:19;8.57;;;1.73;;
43086;SDS011;28708;52.224;6.924;2022-09-27T04:07:48;10.07;;;1.40;;
43086;SDS011;28708;52.224;6.924;2022-09-27T04:10:15;10.27;;;1.77;;
43086;SDS011;28708;52.224;6.924;2022-09-27T04:12:42;6.43;;;1.10;;
43086;SDS011;28708;52.224;6.924;2022-09-27T04:15:08;8.70;;;1.43;;
43086;SDS011;28708;52.224;6.924;2022-09-27T04:17:47;5.93;;;1.23;;
43086;SDS011;28708;52.224;6.924;2022-09-27T04:20:36;5.80;;;1.20;;
43086;SDS011;28708;52.224;6.924;2022-09-27T04:23:05;3.58;;;1.20;;
43086;SDS011;28708;52.224;6.924;2022-09-27T04:25:33;4.30;;;1.07;;
43086;SDS011;28708;52.224;6.924;2022-09-27T04:28:05;5.90;;;1.07;;
43086;SDS011;28708;52.224;6.924;2022-09-27T04:30:31;5.83;;;1.10;;
43086;SDS011;28708;52.224;6.924;2022-09-27T04:33:10;3.70;;;1.40;;
43086;SDS011;28708;52.224;6.924;2022-09-27T04:35:54;8.53;;;1.57;;
43086;SDS011;28708;52.224;6.924;2022-09-27T04:38:46;6.30;;;1.30;;
43086;SDS011;28708;52.224;6.924;2022-09-27T04:41:17;7.53;;;1.60;;
43086;SDS011;28708;52.224;6.924;2022-09-27T04:43:43;6.90;;;1.43;;
43086;SDS011;28708;52.224;6.924;2022-09-27T04:46:09;10.63;;;1.60;;
43086;SDS011;28708;52.224;6.924;2022-09-27T04:48:35;4.63;;;1.50;;
43086;SDS011;28708;52.224;6.924;2022-09-27T04:51:02;5.63;;;1.57;;
43086;SDS011;28708;52.224;6.924;2022-09-27T04:53:28;5.80;;;1.30;;
43086;SDS011;28708;52.224;6.924;2022-09-27T04:55:55;6.13;;;1.53;;
43086;SDS011;28708;52.224;6.924;2022-09-27T04:58:21;7.63;;;1.97;;
43086;SDS011;28708;52.224;6.924;2022-09-27T05:00:48;8.87;;;2.17;;
43086;SDS011;28708;52.224;6.924;2022-09-27T05:03:38;7.30;;;2.00;;
43086;SDS011;28708;52.224;6.924;2022-09-27T05:06:12;5.70;;;1.40;;
43086;SDS011;28708;52.224;6.924;2022-09-27T05:08:38;7.33;;;1.53;;
43086;SDS011;28708;52.224;6.924;2022-09-27T05:11:27;6.90;;;1.90;;
43086;SDS011;28708;52.224;6.924;2022-09-27T05:14:22;9.67;;;2.00;;
43086;SDS011;28708;52.224;6.924;2022-09-27T05:17:00;7.20;;;1.83;;
43086;SDS011;28708;52.224;6.924;2022-09-27T05:19:44;2.43;;;1.30;;
43086;SDS011;28708;52.224;6.924;2022-09-27T05:22:15;7.03;;;1.80;;
43086;SDS011;28708;52.224;6.924;2022-09-27T05:24:43;8.80;;;1.80;;
43086;SDS011;28708;52.224;6.924;2022-09-27T05:27:09;7.17;;;2.03;;
43086;SDS011;28708;52.224;6.924;2022-09-27T05:29:40;7.93;;;1.93;;
43086;SDS011;28708;52.224;6.924;2022-09-27T05:32:20;5.85;;;1.80;;
43086;SDS011;28708;52.224;6.924;2022-09-27T05:34:53;8.90;;;1.60;;
43086;SDS011;28708;52.224;6.924;2022-09-27T05:37:19;6.07;;;1.80;;
43086;SDS011;28708;52.224;6.924;2022-09-27T05:39:46;9.93;;;2.60;;
43086;SDS011;28708;52.224;6.924;2022-09-27T05:42:12;5.97;;;1.67;;
43086;SDS011;28708;52.224;6.924;2022-09-27T05:44:40;10.10;;;1.83;;
43086;SDS011;28708;52.224;6.924;2022-09-27T05:47:06;13.47;;;1.80;;
43086;SDS011;28708;52.224;6.924;2022-09-27T05:49:32;12.73;;;1.80;;
43086;SDS011;28708;52.224;6.924;2022-09-27T05:52:00;7.67;;;1.70;;
43086;SDS011;28708;52.224;6.924;2022-09-27T05:54:27;9.27;;;2.00;;
43086;SDS011;28708;52.224;6.924;2022-09-27T05:56:55;8.20;;;1.80;;
43086;SDS011;28708;52.224;6.924;2022-09-27T05:59:44;9.52;;;1.75;;
43086;SDS011;28708;52.224;6.924;2022-09-27T06:02:14;7.68;;;2.08;;
43086;SDS011;28708;52.224;6.924;2022-09-27T06:04:58;11.93;;;3.23;;
43086;SDS011;28708;52.224;6.924;2022-09-27T06:08:07;11.43;;;2.03;;
43086;SDS011;28708;52.224;6.924;2022-09-27T06:10:40;6.73;;;1.37;;
43086;SDS011;28708;52.224;6.924;2022-09-27T06:13:09;8.10;;;1.40;;
43086;SDS011;28708;52.224;6.924;2022-09-27T06:15:39;7.17;;;1.53;;
43086;SDS011;28708;52.224;6.924;2022-09-27T06:18:07;16.00;;;3.43;;
43086;SDS011;28708;52.224;6.924;2022-09-27T06:20:36;8.67;;;1.53;;
43086;SDS011;28708;52.224;6.924;2022-09-27T06:23:06;9.47;;;1.57;;
43086;SDS011;28708;52.224;6.924;2022-09-27T06:25:48;9.93;;;2.00;;
43086;SDS011;28708;52.224;6.924;2022-09-27T06:28:20;9.83;;;1.67;;
43086;SDS011;28708;52.224;6.924;2022-09-27T06:30:49;8.27;;;1.73;;
43086;SDS011;28708;52.224;6.924;2022-09-27T06:33:22;9.40;;;1.83;;
43086;SDS011;28708;52.224;6.924;2022-09-27T06:35:51;11.37;;;2.70;;
43086;SDS011;28708;52.224;6.924;2022-09-27T06:38:18;12.83;;;1.83;;
43086;SDS011;28708;52.224;6.924;2022-09-27T06:40:59;11.60;;;1.63;;
43086;SDS011;28708;52.224;6.924;2022-09-27T06:43:37;10.23;;;1.53;;
43086;SDS011;28708;52.224;6.924;2022-09-27T06:46:31;9.20;;;1.97;;
43086;SDS011;28708;52.224;6.924;2022-09-27T06:49:24;15.50;;;2.17;;
43086;SDS011;28708;52.224;6.924;2022-09-27T06:51:50;8.30;;;2.07;;
43086;SDS011;28708;52.224;6.924;2022-09-27T06:54:17;7.50;;;1.60;;
43086;SDS011;28708;52.224;6.924;2022-09-27T06:56:46;5.13;;;1.50;;
43086;SDS011;28708;52.224;6.924;2022-09-27T06:59:12;12.77;;;1.90;;
43086;SDS011;28708;52.224;6.924;2022-09-27T07:02:15;9.73;;;1.63;;
43086;SDS011;28708;52.224;6.924;2022-09-27T07:05:16;13.23;;;1.87;;
43086;SDS011;28708;52.224;6.924;2022-09-27T07:08:05;8.52;;;1.83;;
43086;SDS011;28708;52.224;6.924;2022-09-27T07:10:33;4.93;;;1.23;;
43086;SDS011;28708;52.224;6.924;2022-09-27T07:13:02;7.87;;;1.50;;
43086;SDS011;28708;52.224;6.924;2022-09-27T07:15:35;9.57;;;1.60;;
43086;SDS011;28708;52.224;6.924;2022-09-27T07:18:06;6.83;;;1.63;;
43086;SDS011;28708;52.224;6.924;2022-09-27T07:20:33;9.37;;;1.80;;
43086;SDS011;28708;52.224;6.924;2022-09-27T07:23:05;7.53;;;2.13;;
43086;SDS011;28708;52.224;6.924;2022-09-27T07:25:32;12.97;;;2.50;;
43086;SDS011;28708;52.224;6.924;2022-09-27T07:28:03;9.97;;;2.13;;
43086;SDS011;28708;52.224;6.924;2022-09-27T07:30:31;5.73;;;1.30;;
43086;SDS011;28708;52.224;6.924;2022-09-27T07:32:58;10.10;;;2.00;;
43086;SDS011;28708;52.224;6.924;2022-09-27T07:35:28;9.93;;;2.07;;
43086;SDS011;28708;52.224;6.924;2022-09-27T07:37:55;6.63;;;1.40;;
43086;SDS011;28708;52.224;6.924;2022-09-27T07:40:22;8.70;;;1.77;;
43086;SDS011;28708;52.224;6.924;2022-09-27T07:42:55;8.17;;;1.83;;
43086;SDS011;28708;52.224;6.924;2022-09-27T07:45:22;8.90;;;1.63;;
43086;SDS011;28708;52.224;6.924;2022-09-27T07:48:15;9.33;;;2.23;;
43086;SDS011;28708;52.224;6.924;2022-09-27T07:50:55;7.88;;;1.40;;
43086;SDS011;28708;52.224;6.924;2022-09-27T07:53:46;14.02;;;2.15;;
43086;SDS011;28708;52.224;6.924;2022-09-27T07:56:30;11.03;;;1.73;;
43086;SDS011;28708;52.224;6.924;2022-09-27T07:58:57;9.50;;;1.50;;
43086;SDS011;28708;52.224;6.924;2022-09-27T08:01:23;12.67;;;1.90;;
43086;SDS011;28708;52.224;6.924;2022-09-27T08:03:50;10.77;;;1.93;;
43086;SDS011;28708;52.224;6.924;2022-09-27T08:06:17;8.03;;;1.90;;
43086;SDS011;28708;52.224;6.924;2022-09-27T08:08:43;11.77;;;2.30;;
43086;SDS011;28708;52.224;6.924;2022-09-27T08:11:11;7.57;;;1.70;;
43086;SDS011;28708;52.224;6.924;2022-09-27T08:13:40;11.23;;;1.60;;
43086;SDS011;28708;52.224;6.924;2022-09-27T08:16:07;8.57;;;1.70;;
43086;SDS011;28708;52.224;6.924;2022-09-27T08:18:55;9.50;;;2.03;;
43086;SDS011;28708;52.224;6.924;2022-09-27T08:21:50;11.30;;;1.87;;
43086;SDS011;28708;52.224;6.924;2022-09-27T08:24:25;10.17;;;1.43;;
43086;SDS011;28708;52.224;6.924;2022-09-27T08:27:09;6.67;;;1.50;;
43086;SDS011;28708;52.224;6.924;2022-09-27T08:29:46;7.97;;;1.33;;
43086;SDS011;28708;52.224;6.924;2022-09-27T08:32:13;6.80;;;1.67;;
43086;SDS011;28708;52.224;6.924;2022-09-27T08:34:42;7.45;;;1.25;;
43086;SDS011;28708;52.224;6.924;2022-09-27T08:37:08;7.07;;;1.30;;
43086;SDS011;28708;52.224;6.924;2022-09-27T08:39:34;8.77;;;1.63;;
43086;SDS011;28708;52.224;6.924;2022-09-27T08:45:19;3.33;;;0.93;;
43086;SDS011;28708;52.224;6.924;2022-09-27T08:47:53;5.73;;;1.20;;
43086;SDS011;28708;52.224;6.924;2022-09-27T08:50:29;7.17;;;1.27;;
43086;SDS011;28708;52.224;6.924;2022-09-27T08:56:05;10.47;;;1.30;;
43086;SDS011;28708;52.224;6.924;2022-09-27T09:01:27;8.25;;;1.27;;
43086;SDS011;28708;52.224;6.924;2022-09-27T09:04:19;6.67;;;1.53;;
43086;SDS011;28708;52.224;6.924;2022-09-27T09:10:00;5.10;;;1.20;;
43086;SDS011;28708;52.224;6.924;2022-09-27T09:12:48;5.13;;;0.97;;
43086;SDS011;28708;52.224;6.924;2022-09-27T09:18:24;5.17;;;1.10;;
43086;SDS011;28708;52.224;6.924;2022-09-27T09:26:59;5.60;;;1.27;;
43086;SDS011;28708;52.224;6.924;2022-09-27T09:35:00;3.03;;;0.90;;
43086;SDS011;28708;52.224;6.924;2022-09-27T09:37:39;4.65;;;0.98;;
43086;SDS011;28708;52.224;6.924;2022-09-27T09:45:25;6.13;;;1.50;;
43086;SDS011;28708;52.224;6.924;2022-09-27T09:50:47;3.17;;;0.63;;
43086;SDS011;28708;52.224;6.924;2022-09-27T09:53:25;2.97;;;0.60;;
43086;SDS011;28708;52.224;6.924;2022-09-27T09:56:16;4.67;;;1.40;;
43086;SDS011;28708;52.224;6.924;2022-09-27T09:58:56;3.57;;;0.80;;
43086;SDS011;28708;52.224;6.924;2022-09-27T10:01:44;1.97;;;0.70;;
43086;SDS011;28708;52.224;6.924;2022-09-27T10:04:25;1.57;;;0.60;;
43086;SDS011;28708;52.224;6.924;2022-09-27T10:06:55;5.73;;;1.17;;
43086;SDS011;28708;52.224;6.924;2022-09-27T10:09:26;4.27;;;0.80;;
43086;SDS011;28708;52.224;6.924;2022-09-27T10:12:11;3.90;;;0.80;;
43086;SDS011;28708;52.224;6.924;2022-09-27T10:14:39;3.97;;;0.70;;
43086;SDS011;28708;52.224;6.924;2022-09-27T10:17:08;4.13;;;0.60;;
43086;SDS011;28708;52.224;6.924;2022-09-27T10:19:39;3.67;;;0.97;;
43086;SDS011;28708;52.224;6.924;2022-09-27T10:22:12;3.67;;;0.70;;
43086;SDS011;28708;52.224;6.924;2022-09-27T10:25:05;5.77;;;1.20;;
43086;SDS011;28708;52.224;6.924;2022-09-27T10:27:52;3.07;;;0.77;;
43086;SDS011;28708;52.224;6.924;2022-09-27T10:30:28;3.30;;;0.70;;
43086;SDS011;28708;52.224;6.924;2022-09-27T10:33:13;6.33;;;1.03;;
43086;SDS011;28708;52.224;6.924;2022-09-27T10:35:45;3.17;;;0.80;;
43086;SDS011;28708;52.224;6.924;2022-09-27T10:38:26;3.67;;;0.80;;
43086;SDS011;28708;52.224;6.924;2022-09-27T10:46:45;3.83;;;0.63;;
43086;SDS011;28708;52.224;6.924;2022-09-27T10:49:35;2.57;;;0.50;;
43086;SDS011;28708;52.224;6.924;2022-09-27T10:52:18;1.07;;;0.40;;
43086;SDS011;28708;52.224;6.924;2022-09-27T10:54:54;1.97;;;0.57;;
43086;SDS011;28708;52.224;6.924;2022-09-27T10:57:24;1.33;;;0.50;;
43086;SDS011;28708;52.224;6.924;2022-09-27T10:59:58;1.23;;;0.40;;
43086;SDS011;28708;52.224;6.924;2022-09-27T11:02:36;2.27;;;0.57;;
43086;SDS011;28708;52.224;6.924;2022-09-27T11:07:48;3.28;;;0.65;;
43086;SDS011;28708;52.224;6.924;2022-09-27T11:10:23;2.63;;;0.70;;
43086;SDS011;28708;52.224;6.924;2022-09-27T11:13:05;2.78;;;0.65;;
43086;SDS011;28708;52.224;6.924;2022-09-27T11:18:25;4.00;;;1.30;;
43086;SDS011;28708;52.224;6.924;2022-09-27T11:21:09;5.00;;;2.00;;
43086;SDS011;28708;52.224;6.924;2022-09-27T11:24:24;3.80;;;1.03;;
43086;SDS011;28708;52.224;6.924;2022-09-27T11:38:42;3.80;;;0.77;;
43086;SDS011;28708;52.224;6.924;2022-09-27T11:41:36;2.27;;;0.67;;
43086;SDS011;28708;52.224;6.924;2022-09-27T11:47:13;4.13;;;0.70;;
43086;SDS011;28708;52.224;6.924;2022-09-27T11:58:01;2.37;;;0.60;;
43086;SDS011;28708;52.224;6.924;2022-09-27T12:00:47;3.47;;;0.77;;
43086;SDS011;28708;52.224;6.924;2022-09-27T12:09:14;3.40;;;0.90;;
43086;SDS011;28708;52.224;6.924;2022-09-27T12:11:49;3.30;;;0.87;;
43086;SDS011;28708;52.224;6.924;2022-09-27T12:14:24;2.80;;;0.80;;
43086;SDS011;28708;52.224;6.924;2022-09-27T12:17:47;4.97;;;0.90;;
43086;SDS011;28708;52.224;6.924;2022-09-27T12:20:16;4.10;;;1.40;;
43086;SDS011;28708;52.224;6.924;2022-09-27T12:23:03;3.30;;;0.83;;
43086;SDS011;28708;52.224;6.924;2022-09-27T12:26:14;3.07;;;1.10;;
43086;SDS011;28708;52.224;6.924;2022-09-27T12:29:01;3.40;;;1.00;;
43086;SDS011;28708;52.224;6.924;2022-09-27T12:34:38;3.93;;;1.27;;
43086;SDS011;28708;52.224;6.924;2022-09-27T12:37:13;4.67;;;1.40;;
43086;SDS011;28708;52.224;6.924;2022-09-27T12:40:05;4.43;;;1.40;;
43086;SDS011;28708;52.224;6.924;2022-09-27T12:42:43;3.60;;;1.17;;
43086;SDS011;28708;52.224;6.924;2022-09-27T12:51:35;5.70;;;1.50;;
43086;SDS011;28708;52.224;6.924;2022-09-27T13:00:52;4.00;;;1.10;;
43086;SDS011;28708;52.224;6.924;2022-09-27T13:06:53;5.40;;;1.63;;
43086;SDS011;28708;52.224;6.924;2022-09-27T13:12:17;3.37;;;1.23;;
43086;SDS011;28708;52.224;6.924;2022-09-27T13:15:34;2.20;;;0.87;;
43086;SDS011;28708;52.224;6.924;2022-09-27T13:17:48;3.90;;;0.90;;
43086;SDS011;28708;52.224;6.924;2022-09-27T13:20:37;3.40;;;0.83;;
43086;SDS011;28708;52.224;6.924;2022-09-27T13:25:53;3.20;;;0.93;;
43086;SDS011;28708;52.224;6.924;2022-09-27T13:32:00;4.00;;;1.00;;
43086;SDS011;28708;52.224;6.924;2022-09-27T13:38:17;4.00;;;0.93;;
43086;SDS011;28708;52.224;6.924;2022-09-27T13:51:35;2.33;;;0.93;;
43086;SDS011;28708;52.224;6.924;2022-09-27T14:00:03;5.67;;;1.37;;
43086;SDS011;28708;52.224;6.924;2022-09-27T14:03:00;5.20;;;1.13;;
43086;SDS011;28708;52.224;6.924;2022-09-27T14:05:40;2.63;;;0.90;;
43086;SDS011;28708;52.224;6.924;2022-09-27T14:08:55;5.07;;;2.63;;
43086;SDS011;28708;52.224;6.924;2022-09-27T14:11:10;3.17;;;0.90;;
43086;SDS011;28708;52.224;6.924;2022-09-27T14:13:41;2.00;;;0.50;;
43086;SDS011;28708;52.224;6.924;2022-09-27T14:18:44;5.37;;;1.17;;
43086;SDS011;28708;52.224;6.924;2022-09-27T14:21:38;5.53;;;0.90;;
43086;SDS011;28708;52.224;6.924;2022-09-27T14:24:29;2.77;;;1.00;;
43086;SDS011;28708;52.224;6.924;2022-09-27T14:27:23;4.83;;;1.00;;
43086;SDS011;28708;52.224;6.924;2022-09-27T14:29:59;2.67;;;0.67;;
43086;SDS011;28708;52.224;6.924;2022-09-27T14:32:53;4.47;;;0.90;;
43086;SDS011;28708;52.224;6.924;2022-09-27T14:35:29;3.20;;;0.70;;
43086;SDS011;28708;52.224;6.924;2022-09-27T14:38:15;5.50;;;0.60;;
43086;SDS011;28708;52.224;6.924;2022-09-27T14:43:17;2.00;;;0.70;;
43086;SDS011;28708;52.224;6.924;2022-09-27T14:45:45;3.50;;;0.90;;
43086;SDS011;28708;52.224;6.924;2022-09-27T14:48:29;3.40;;;0.90;;
43086;SDS011;28708;52.224;6.924;2022-09-27T14:51:14;3.30;;;1.10;;
43086;SDS011;28708;52.224;6.924;2022-09-27T14:53:45;2.73;;;0.93;;
43086;SDS011;28708;52.224;6.924;2022-09-27T14:56:13;2.03;;;0.80;;
43086;SDS011;28708;52.224;6.924;2022-09-27T14:58:57;3.60;;;0.70;;
43086;SDS011;28708;52.224;6.924;2022-09-27T15:01:28;3.13;;;0.67;;
43086;SDS011;28708;52.224;6.924;2022-09-27T15:03:55;3.47;;;0.73;;
43086;SDS011;28708;52.224;6.924;2022-09-27T15:06:28;3.70;;;1.00;;
43086;SDS011;28708;52.224;6.924;2022-09-27T15:08:54;2.73;;;1.00;;
43086;SDS011;28708;52.224;6.924;2022-09-27T15:11:20;4.30;;;1.03;;
43086;SDS011;28708;52.224;6.924;2022-09-27T15:13:48;4.40;;;1.30;;
43086;SDS011;28708;52.224;6.924;2022-09-27T15:16:17;2.37;;;0.73;;
43086;SDS011;28708;52.224;6.924;2022-09-27T15:18:46;3.70;;;0.80;;
43086;SDS011;28708;52.224;6.924;2022-09-27T15:24:01;3.30;;;0.90;;
43086;SDS011;28708;52.224;6.924;2022-09-27T15:26:34;1.67;;;0.60;;
43086;SDS011;28708;52.224;6.924;2022-09-27T15:29:18;2.10;;;0.53;;
43086;SDS011;28708;52.224;6.924;2022-09-27T15:31:56;1.10;;;0.63;;
43086;SDS011;28708;52.224;6.924;2022-09-27T15:34:30;4.30;;;0.90;;
43086;SDS011;28708;52.224;6.924;2022-09-27T15:37:02;3.40;;;0.80;;
43086;SDS011;28708;52.224;6.924;2022-09-27T15:39:33;2.53;;;0.80;;
43086;SDS011;28708;52.224;6.924;2022-09-27T15:45:41;1.97;;;0.70;;
43086;SDS011;28708;52.224;6.924;2022-09-27T15:47:51;4.37;;;1.00;;
43086;SDS011;28708;52.224;6.924;2022-09-27T15:52:54;2.20;;;0.90;;
43086;SDS011;28708;52.224;6.924;2022-09-27T15:55:25;5.43;;;1.47;;
43086;SDS011;28708;52.224;6.924;2022-09-27T15:57:58;2.17;;;0.83;;
43086;SDS011;28708;52.224;6.924;2022-09-27T16:00:30;2.23;;;0.87;;
43086;SDS011;28708;52.224;6.924;2022-09-27T16:02:56;4.40;;;1.20;;
43086;SDS011;28708;52.224;6.924;2022-09-27T16:05:22;3.20;;;0.90;;
43086;SDS011;28708;52.224;6.924;2022-09-27T16:07:48;3.50;;;0.80;;
43086;SDS011;28708;52.224;6.924;2022-09-27T16:10:21;4.30;;;1.13;;
43086;SDS011;28708;52.224;6.924;2022-09-27T16:12:54;2.55;;;0.98;;
43086;SDS011;28708;52.224;6.924;2022-09-27T16:15:20;5.70;;;1.40;;
43086;SDS011;28708;52.224;6.924;2022-09-27T16:17:46;5.83;;;1.40;;
43086;SDS011;28708;52.224;6.924;2022-09-27T16:20:17;4.37;;;1.57;;
43086;SDS011;28708;52.224;6.924;2022-09-27T16:22:47;3.97;;;1.30;;
43086;SDS011;28708;52.224;6.924;2022-09-27T16:25:14;4.80;;;1.70;;
43086;SDS011;28708;52.224;6.924;2022-09-27T16:27:40;4.17;;;1.53;;
43086;SDS011;28708;52.224;6.924;2022-09-27T16:30:06;4.50;;;1.20;;
43086;SDS011;28708;52.224;6.924;2022-09-27T16:32:32;3.07;;;0.90;;
43086;SDS011;28708;52.224;6.924;2022-09-27T16:35:00;6.77;;;0.93;;
43086;SDS011;28708;52.224;6.924;2022-09-27T16:37:26;3.90;;;1.30;;
43086;SDS011;28708;52.224;6.924;2022-09-27T16:39:54;5.30;;;1.60;;
43086;SDS011;28708;52.224;6.924;2022-09-27T16:42:20;2.57;;;1.10;;
43086;SDS011;28708;52.224;6.924;2022-09-27T16:44:46;3.27;;;1.03;;
43086;SDS011;28708;52.224;6.924;2022-09-27T16:47:13;3.33;;;0.97;;
43086;SDS011;28708;52.224;6.924;2022-09-27T16:49:39;3.87;;;1.20;;
43086;SDS011;28708;52.224;6.924;2022-09-27T16:52:23;3.23;;;1.10;;
43086;SDS011;28708;52.224;6.924;2022-09-27T16:54:49;4.93;;;1.50;;
43086;SDS011;28708;52.224;6.924;2022-09-27T16:57:14;4.13;;;1.30;;
43086;SDS011;28708;52.224;6.924;2022-09-27T16:59:40;6.33;;;2.20;;
43086;SDS011;28708;52.224;6.924;2022-09-27T17:02:07;7.00;;;2.60;;
43086;SDS011;28708;52.224;6.924;2022-09-27T17:04:33;7.03;;;2.60;;
43086;SDS011;28708;52.224;6.924;2022-09-27T17:06:59;7.03;;;2.33;;
43086;SDS011;28708;52.224;6.924;2022-09-27T17:09:25;6.03;;;1.90;;
43086;SDS011;28708;52.224;6.924;2022-09-27T17:11:51;3.33;;;1.43;;
43086;SDS011;28708;52.224;6.924;2022-09-27T17:14:17;4.87;;;1.20;;
43086;SDS011;28708;52.224;6.924;2022-09-27T17:16:43;4.03;;;1.40;;
43086;SDS011;28708;52.224;6.924;2022-09-27T17:19:11;3.47;;;1.40;;
43086;SDS011;28708;52.224;6.924;2022-09-27T17:21:39;4.63;;;1.50;;
43086;SDS011;28708;52.224;6.924;2022-09-27T17:24:05;5.60;;;1.60;;
43086;SDS011;28708;52.224;6.924;2022-09-27T17:26:31;5.13;;;1.70;;
43086;SDS011;28708;52.224;6.924;2022-09-27T17:28:58;4.73;;;1.93;;
43086;SDS011;28708;52.224;6.924;2022-09-27T17:31:28;6.00;;;2.00;;
43086;SDS011;28708;52.224;6.924;2022-09-27T17:33:56;5.47;;;1.90;;
43086;SDS011;28708;52.224;6.924;2022-09-27T17:36:25;5.27;;;1.90;;
43086;SDS011;28708;52.224;6.924;2022-09-27T17:38:52;5.27;;;2.40;;
43086;SDS011;28708;52.224;6.924;2022-09-27T17:41:19;5.97;;;3.50;;
43086;SDS011;28708;52.224;6.924;2022-09-27T17:43:50;5.15;;;2.35;;
43086;SDS011;28708;52.224;6.924;2022-09-27T17:46:22;4.70;;;2.00;;
43086;SDS011;28708;52.224;6.924;2022-09-27T17:48:50;4.13;;;1.70;;
43086;SDS011;28708;52.224;6.924;2022-09-27T17:51:36;5.57;;;1.87;;
43086;SDS011;28708;52.224;6.924;2022-09-27T17:54:10;5.73;;;2.37;;
43086;SDS011;28708;52.224;6.924;2022-09-27T17:56:37;4.10;;;2.40;;
43086;SDS011;28708;52.224;6.924;2022-09-27T17:59:04;6.23;;;2.20;;
43086;SDS011;28708;52.224;6.924;2022-09-27T18:01:31;5.87;;;3.03;;
43086;SDS011;28708;52.224;6.924;2022-09-27T18:03:58;9.63;;;4.10;;
43086;SDS011;28708;52.224;6.924;2022-09-27T18:06:25;10.00;;;3.47;;
43086;SDS011;28708;52.224;6.924;2022-09-27T18:08:53;7.33;;;3.30;;
43086;SDS011;28708;52.224;6.924;2022-09-27T18:11:20;8.73;;;3.23;;
43086;SDS011;28708;52.224;6.924;2022-09-27T18:13:54;8.47;;;3.30;;
43086;SDS011;28708;52.224;6.924;2022-09-27T18:16:24;8.40;;;3.00;;
43086;SDS011;28708;52.224;6.924;2022-09-27T18:18:59;6.87;;;2.73;;
43086;SDS011;28708;52.224;6.924;2022-09-27T18:21:27;7.30;;;3.37;;
43086;SDS011;28708;52.224;6.924;2022-09-27T18:23:55;6.60;;;3.23;;
43086;SDS011;28708;52.224;6.924;2022-09-27T18:26:23;7.50;;;2.83;;
43086;SDS011;28708;52.224;6.924;2022-09-27T18:28:51;7.37;;;2.70;;